Time;durP1;ratioP1;P1;durP2;ratioP2;P2;SDS_P1;SDS_P2;PMS_P1;PMS_P2;Temp;Humidity;BMP_temperature;BMP_pressure;BME280_temperature;BME280_humidity;BME280_pressure;Samples;Min_cycle;Max_cycle;Signal;HPM_P1;HPM_P2
2021/12/26 00:11:12;;;;;;;0.40;0.40;;;-1.30;74.50;-3.60;100715.00;;;;30923818;28;20105;-70
2021/12/26 00:26:15;;;;;;;0.60;0.60;;;-1.70;73.30;-3.40;100698.00;;;;30955011;28;20145;-70
2021/12/26 00:41:17;;;;;;;0.40;0.40;;;-1.70;74.20;-3.30;100694.00;;;;30938703;28;20462;-70
2021/12/26 00:56:19;;;;;;;0.50;0.50;;;-1.50;72.80;-3.20;100687.00;;;;30941564;28;20057;-69
2021/12/26 01:11:35;;;;;;;0.38;0.38;;;-1.50;73.20;-3.30;100690.00;;;;30954665;28;20046;-69
2021/12/26 01:26:43;;;;;;;0.50;0.50;;;-1.60;73.00;-3.40;100685.00;;;;30942331;28;20042;-69
2021/12/26 01:41:52;;;;;;;0.40;0.40;;;-1.70;72.20;-3.40;100695.00;;;;30940254;28;20501;-69
2021/12/26 01:57:07;;;;;;;0.52;0.52;;;-1.10;73.90;-3.50;100702.00;;;;30916024;28;20053;-69
2021/12/26 02:12:10;;;;;;;0.40;0.40;;;-1.70;73.40;-3.60;100689.00;;;;30939950;28;20062;-69
2021/12/26 02:27:34;;;;;;;0.47;0.47;;;-1.90;73.70;-3.70;100674.00;;;;30914005;28;20571;-69
2021/12/26 02:42:37;;;;;;;0.45;0.45;;;-2.00;73.40;-3.90;100649.00;;;;30939216;28;20030;-68
2021/12/26 02:57:39;;;;;;;0.40;0.40;;;-2.20;73.40;-4.00;100635.00;;;;30935401;28;20073;-68
2021/12/26 03:12:51;;;;;;;0.40;0.40;;;-2.30;75.20;-4.20;100643.00;;;;30933377;28;20567;-68
2021/12/26 03:27:59;;;;;;;0.50;0.50;;;-2.90;75.90;-4.10;100651.00;;;;30938785;28;20050;-68
2021/12/26 03:43:00;;;;;;;0.55;0.55;;;-2.30;74.70;-4.00;100642.00;;;;30939901;28;20057;-67
2021/12/26 03:58:02;;;;;;;0.40;0.40;;;-2.10;75.70;-3.90;100631.00;;;;30925579;28;20434;-67
2021/12/26 04:13:06;;;;;;;0.50;0.50;;;-2.10;73.80;-3.80;100622.00;;;;30914094;28;20057;-67
2021/12/26 04:28:09;;;;;;;0.60;0.60;;;-1.90;73.20;-3.70;100616.00;;;;30948031;28;20097;-67
2021/12/26 04:43:19;;;;;;;0.40;0.40;;;-2.00;73.80;-3.80;100600.00;;;;30937990;28;20053;-67
2021/12/26 04:58:30;;;;;;;0.50;0.50;;;-2.10;73.00;-3.90;100573.00;;;;30958697;28;20034;-68
2021/12/26 05:13:31;;;;;;;0.60;0.60;;;-2.20;72.60;-4.00;100586.00;;;;30950803;28;20137;-67
2021/12/26 05:28:34;;;;;;;0.30;0.30;;;-2.20;73.30;-4.00;100572.00;;;;30902714;28;20560;-68
2021/12/26 05:43:37;;;;;;;0.60;0.60;;;-2.20;74.30;-4.00;100565.00;;;;30924703;28;20582;-68
2021/12/26 05:58:40;;;;;;;0.50;0.50;;;-2.10;73.50;-3.90;100562.00;;;;30915166;28;20057;-68
2021/12/26 06:13:44;;;;;;;0.50;0.50;;;-2.10;74.40;-3.70;100573.00;;;;30913117;28;20309;-68
2021/12/26 06:28:48;;;;;;;0.60;0.60;;;-1.80;73.70;-3.50;100573.00;;;;30918471;28;20042;-68
2021/12/26 06:44:08;;;;;;;0.40;0.40;;;-1.70;74.10;-3.40;100558.00;;;;30939599;28;20117;-68
2021/12/26 06:59:52;;;;;;;0.30;0.30;;;-1.70;74.50;-3.30;100548.00;;;;30915886;28;20038;-69
2021/12/26 07:14:56;;;;;;;0.40;0.40;;;-1.60;74.60;-3.30;100558.00;;;;30912362;28;20081;-69
2021/12/26 07:30:03;;;;;;;0.40;0.40;;;-2.20;77.00;-3.30;100551.00;;;;30920020;28;20188;-69
2021/12/26 07:45:17;;;;;;;0.30;0.30;;;-1.60;76.10;-3.40;100541.00;;;;30912149;28;20038;-69
2021/12/26 08:00:28;;;;;;;0.50;0.50;;;-1.60;75.80;-3.40;100535.00;;;;30927452;28;20120;-68
2021/12/26 08:15:30;;;;;;;0.40;0.40;;;-1.70;77.50;-3.30;100542.00;;;;30963395;28;20068;-69
2021/12/26 08:30:34;;;;;;;0.40;0.40;;;-1.60;76.00;-3.20;100541.00;;;;30967518;28;20401;-68
2021/12/26 08:45:37;;;;;;;0.52;0.52;;;-1.50;77.10;-3.10;100559.00;;;;30963661;28;20093;-68
2021/12/26 09:00:38;;;;;;;0.45;0.45;;;-1.30;75.90;-2.90;100553.00;;;;30930530;28;21211;-69
2021/12/26 09:15:41;;;;;;;0.50;0.50;;;-1.10;75.60;-2.80;100557.00;;;;30954615;28;20050;-69
2021/12/26 09:30:43;;;;;;;0.30;0.30;;;-1.00;75.80;-2.60;100580.00;;;;30941181;28;20495;-69
2021/12/26 09:45:45;;;;;;;0.50;0.50;;;-0.80;75.70;-2.40;100572.00;;;;30913322;28;20056;-69
2021/12/26 10:00:46;;;;;;;0.40;0.40;;;-0.60;76.00;-2.00;100569.00;;;;30915845;28;20146;-69
2021/12/26 10:15:48;;;;;;;0.50;0.50;;;0.10;76.30;-1.70;100556.00;;;;30926702;28;20585;-69
2021/12/26 10:30:52;;;;;;;0.40;0.40;;;0.10;77.70;-1.40;100538.00;;;;30910616;28;20228;-69
2021/12/26 10:45:53;;;;;;;0.50;0.50;;;0.70;77.20;-1.30;100516.00;;;;30928618;28;20043;-70
2021/12/26 11:00:58;;;;;;;0.45;0.45;;;0.30;76.90;-1.20;100516.00;;;;30932290;28;20049;-70
2021/12/26 11:16:06;;;;;;;0.40;0.40;;;0.30;76.80;-0.90;100495.00;;;;30913638;28;20053;-70
2021/12/26 11:31:16;;;;;;;0.30;0.30;;;0.80;77.40;-0.60;100482.00;;;;30939536;28;20060;-71
2021/12/26 11:46:41;;;;;;;0.40;0.40;;;1.10;77.30;-0.40;100474.00;;;;30916734;28;20433;-70
2021/12/26 12:02:04;;;;;;;0.30;0.30;;;1.30;77.90;-0.10;100477.00;;;;30977336;28;20077;-70
2021/12/26 12:17:36;;;;;;;0.38;0.38;;;1.50;77.80;0.10;100467.00;;;;31036979;28;20092;-70
2021/12/26 12:32:37;;;;;;;0.30;0.30;;;1.60;78.10;0.10;100474.00;;;;31056394;28;20525;-70
2021/12/26 12:47:38;;;;;;;0.40;0.40;;;1.70;78.90;0.30;100476.00;;;;31051501;28;20045;-71
2021/12/26 13:02:45;;;;;;;0.33;0.33;;;1.80;78.60;0.40;100465.00;;;;31052675;28;20141;-71
2021/12/26 13:17:47;;;;;;;0.50;0.50;;;1.90;81.10;0.50;100437.00;;;;31030466;28;20308;-72
2021/12/26 13:32:49;;;;;;;0.40;0.40;;;2.30;80.60;0.60;100434.00;;;;31030076;28;20494;-72
2021/12/26 13:47:50;;;;;;;0.30;0.30;;;2.10;80.00;0.70;100426.00;;;;31026576;28;20045;-73
2021/12/26 14:02:51;;;;;;;0.40;0.40;;;2.10;80.10;0.70;100412.00;;;;31024767;28;20137;-72
2021/12/26 14:18:01;;;;;;;0.30;0.30;;;2.10;80.00;0.60;100398.00;;;;31029684;28;20049;-73
2021/12/26 14:33:02;;;;;;;0.30;0.30;;;2.10;80.60;0.60;100410.00;;;;31016437;28;20050;-73
2021/12/26 14:48:04;;;;;;;0.40;0.40;;;2.10;81.40;0.70;100410.00;;;;31033336;28;20139;-73
2021/12/26 15:03:16;;;;;;;0.40;0.40;;;2.10;81.20;0.70;100388.00;;;;31027526;28;20085;-73
2021/12/26 15:18:31;;;;;;;0.30;0.30;;;2.10;81.50;0.60;100369.00;;;;31031752;28;20587;-73
2021/12/26 15:33:44;;;;;;;0.40;0.40;;;2.10;82.30;0.60;100365.00;;;;31034017;28;20109;-73
2021/12/26 15:48:51;;;;;;;0.30;0.30;;;2.60;87.50;0.60;100367.00;;;;31041315;28;20038;-72
2021/12/26 16:03:52;;;;;;;0.45;0.45;;;2.10;83.00;0.60;100360.00;;;;30990524;28;20093;-72
2021/12/26 16:18:54;;;;;;;0.30;0.30;;;2.10;83.30;0.70;100361.00;;;;30909152;28;20046;-72
2021/12/26 16:33:55;;;;;;;0.40;0.40;;;2.20;83.30;0.70;100339.00;;;;30922328;28;20054;-72
2021/12/26 16:48:56;;;;;;;0.35;0.35;;;2.20;83.80;0.70;100335.00;;;;30903641;28;21174;-72
2021/12/26 17:03:58;;;;;;;0.50;0.50;;;2.20;84.10;0.80;100319.00;;;;30909477;28;20155;-73
2021/12/26 17:19:00;;;;;;;0.45;0.45;;;2.30;85.30;0.80;100313.00;;;;30908278;28;20120;-72
2021/12/26 17:34:01;;;;;;;0.50;0.50;;;2.20;85.60;0.90;100305.00;;;;30921547;28;20054;-72
2021/12/26 17:49:02;;;;;;;0.40;0.40;;;2.40;86.40;1.00;100294.00;;;;30927175;28;20392;-74
2021/12/26 18:04:06;;;;;;;0.32;0.32;;;0.90;85.70;1.10;100286.00;;;;30948736;28;20085;-73
2021/12/26 18:19:48;;;;;;;0.32;0.32;;;2.50;87.10;1.20;100294.00;;;;30926515;28;20050;-72
2021/12/26 18:34:49;;;;;;;0.30;0.30;;;2.00;87.20;1.30;100295.00;;;;30894620;28;20113;-73
2021/12/26 18:49:50;;;;;;;1.85;1.75;;;2.80;88.10;1.40;100284.00;;;;30905873;28;20050;-73
2021/12/26 19:04:51;;;;;;;0.30;0.30;;;2.90;88.70;1.50;100260.00;;;;30920718;28;20104;-73
2021/12/26 19:19:52;;;;;;;0.28;0.28;;;2.80;91.20;1.60;100272.00;;;;30918244;28;20389;-73
2021/12/26 19:34:53;;;;;;;0.40;0.40;;;3.10;89.80;1.70;100271.00;;;;30932759;28;20054;-73
2021/12/26 19:49:54;;;;;;;0.50;0.50;;;3.10;89.50;1.80;100270.00;;;;30901088;28;20046;-74
2021/12/26 20:04:55;;;;;;;0.40;0.40;;;3.20;90.00;1.90;100261.00;;;;30932004;28;20080;-74
2021/12/26 20:19:56;;;;;;;0.30;0.30;;;3.30;90.40;1.90;100258.00;;;;30899445;28;20064;-74
2021/12/26 20:34:57;;;;;;;0.30;0.30;;;3.20;90.90;1.80;100249.00;;;;30899665;28;20042;-73
2021/12/26 20:49:58;;;;;;;0.40;0.40;;;3.20;92.00;1.90;100225.00;;;;31018209;28;20444;-73
2021/12/26 21:04:59;;;;;;;0.27;0.27;;;3.20;92.10;1.90;100229.00;;;;31048492;28;20421;-74
2021/12/26 21:20:02;;;;;;;1.35;1.27;;;3.30;92.60;2.00;100226.00;;;;31027750;28;20132;-73
2021/12/26 21:35:06;;;;;;;0.40;0.40;;;3.40;92.90;2.10;100211.00;;;;31054432;28;20086;-74
2021/12/26 21:50:16;;;;;;;0.35;0.35;;;3.50;92.80;2.10;100197.00;;;;31052304;28;20054;-74
2021/12/26 22:05:20;;;;;;;0.40;0.40;;;3.50;92.90;2.20;100194.00;;;;31037568;28;20051;-74
2021/12/26 22:20:21;;;;;;;0.30;0.30;;;3.60;92.20;2.20;100210.00;;;;30916265;28;20056;-74
2021/12/26 22:35:23;;;;;;;0.20;0.20;;;3.60;92.40;2.30;100188.00;;;;30928907;28;20201;-74
2021/12/26 22:50:25;;;;;;;0.30;0.30;;;3.60;92.90;2.30;100187.00;;;;30893601;28;20656;-74
2021/12/26 23:05:25;;;;;;;0.30;0.30;;;3.60;93.40;2.30;100178.00;;;;30908030;28;20140;-74
2021/12/26 23:20:27;;;;;;;0.30;0.30;;;3.70;93.80;2.30;100165.00;;;;30944147;28;20046;-74
2021/12/26 23:35:33;;;;;;;0.30;0.30;;;3.70;93.70;2.40;100159.00;;;;30945729;28;20074;-72
2021/12/26 23:50:34;;;;;;;0.27;0.27;;;3.80;93.70;2.40;100145.00;;;;30939810;28;20465;-73
